Time;durP1;ratioP1;P1;durP2;ratioP2;P2;SDS_P1;SDS_P2;PMS_P1;PMS_P2;Temp;Humidity;BMP_temperature;BMP_pressure;BME280_temperature;BME280_humidity;BME280_pressure;Samples;Min_cycle;Max_cycle;Signal;HPM_P1;HPM_P2
2022/10/12 00:00:54;;;;;;;3.17;2.03;;;3.80;99.90;3.50;101568.00;;;;4953880;28;107979;-61
2022/10/12 00:03:20;;;;;;;3.30;1.97;;;3.80;99.90;3.50;101570.00;;;;4946905;28;117870;-61
2022/10/12 00:05:46;;;;;;;2.77;1.63;;;3.80;99.90;3.40;101569.00;;;;4956398;28;87804;-61
2022/10/12 00:08:12;;;;;;;1.93;1.50;;;3.70;99.90;3.40;101569.00;;;;4953601;28;87872;-61
2022/10/12 00:10:42;;;;;;;1.70;1.60;;;3.70;99.90;3.40;101577.00;;;;4947244;28;117854;-61
2022/10/12 00:13:09;;;;;;;3.23;1.87;;;3.60;99.90;3.40;101575.00;;;;4953525;28;105419;-61
2022/10/12 00:15:40;;;;;;;1.57;1.47;;;3.60;99.90;3.40;101575.00;;;;4948816;28;87043;-61
2022/10/12 00:18:07;;;;;;;1.83;1.57;;;3.60;99.90;3.30;101578.00;;;;4948507;28;92268;-61
2022/10/12 00:20:33;;;;;;;3.87;1.77;;;3.70;99.90;3.30;101579.00;;;;4953911;28;88196;-61
2022/10/12 00:22:59;;;;;;;2.27;1.67;;;3.60;99.90;3.30;101576.00;;;;4950946;28;88965;-61
2022/10/12 00:25:24;;;;;;;3.70;1.90;;;3.60;99.90;3.30;101582.00;;;;4947120;28;88359;-61
2022/10/12 00:27:50;;;;;;;2.47;1.80;;;3.50;99.90;3.20;101579.00;;;;4955602;28;87828;-61
2022/10/12 00:30:16;;;;;;;2.17;1.43;;;3.50;99.90;3.20;101578.00;;;;4947694;28;103043;-60
2022/10/12 00:32:42;;;;;;;2.00;1.70;;;3.50;99.90;3.20;101589.00;;;;4951460;28;88070;-61
2022/10/12 00:35:08;;;;;;;4.77;1.80;;;3.40;99.90;3.20;101582.00;;;;4954434;28;110090;-61
2022/10/12 00:37:34;;;;;;;1.50;1.37;;;3.40;99.90;3.10;101589.00;;;;4949613;28;109780;-61
2022/10/12 00:39:59;;;;;;;2.03;1.73;;;3.40;99.90;3.10;101590.00;;;;4948966;28;87143;-61
2022/10/12 00:42:25;;;;;;;2.17;1.73;;;3.40;99.90;3.10;101589.00;;;;4952214;28;118317;-61
2022/10/12 00:44:51;;;;;;;3.60;2.00;;;3.30;99.90;3.00;101582.00;;;;4949311;28;100003;-61
2022/10/12 00:47:34;;;;;;;2.73;1.87;;;3.30;99.90;3.00;101591.00;;;;4941405;28;96204;-62
2022/10/12 00:50:19;;;;;;;2.23;1.50;;;3.30;99.90;3.00;101604.00;;;;4952253;28;88458;-61
2022/10/12 00:52:57;;;;;;;1.53;1.40;;;3.20;99.90;2.90;101591.00;;;;4950625;28;88566;-61
2022/10/12 00:55:26;;;;;;;2.17;1.70;;;3.20;99.90;2.90;101577.00;;;;4953512;28;88009;-61
2022/10/12 00:57:54;;;;;;;3.37;1.37;;;3.20;99.90;2.90;101592.00;;;;4953521;28;87769;-61
2022/10/12 01:00:21;;;;;;;3.57;1.47;;;3.20;99.90;2.90;101591.00;;;;4950999;28;117692;-61
2022/10/12 01:02:49;;;;;;;4.17;2.20;;;3.10;99.90;2.90;101588.00;;;;4966356;28;87870;-61
2022/10/12 01:05:17;;;;;;;2.00;1.53;;;3.20;99.90;2.90;101599.00;;;;4964672;28;101182;-61
2022/10/12 01:07:43;;;;;;;2.33;1.47;;;3.10;99.90;2.90;101600.00;;;;4950821;28;102160;-61
2022/10/12 01:10:09;;;;;;;2.93;1.93;;;3.10;99.90;2.80;101586.00;;;;4948234;28;88051;-61
2022/10/12 01:12:36;;;;;;;1.87;1.60;;;3.10;99.90;2.80;101591.00;;;;4946938;28;94856;-61
2022/10/12 01:15:03;;;;;;;1.40;1.30;;;3.10;99.90;2.80;101579.00;;;;4952876;28;99026;-62
2022/10/12 01:17:56;;;;;;;3.17;2.40;;;3.10;99.90;2.70;101584.00;;;;4952953;28;88731;-61
2022/10/12 01:20:35;;;;;;;2.30;1.77;;;3.00;99.90;2.70;101589.00;;;;4969261;28;88768;-61
2022/10/12 01:23:16;;;;;;;3.10;1.93;;;3.10;99.90;2.70;101587.00;;;;4948979;28;110756;-61
2022/10/12 01:26:35;;;;;;;2.80;2.00;;;3.00;99.90;2.60;101581.00;;;;4953517;28;88531;-60
2022/10/12 01:29:27;;;;;;;2.70;2.13;;;3.00;99.90;2.60;101587.00;;;;4952269;28;99488;-61
2022/10/12 01:32:22;;;;;;;2.40;2.20;;;2.90;99.90;2.60;101595.00;;;;4946155;28;87530;-62
2022/10/12 01:35:01;;;;;;;3.73;2.43;;;2.80;99.90;2.50;101583.00;;;;4945778;28;110922;-62
2022/10/12 01:38:00;;;;;;;3.17;2.13;;;2.80;99.90;2.50;101578.00;;;;4952723;28;87751;-61
2022/10/12 01:40:37;;;;;;;2.50;1.80;;;2.80;99.90;2.50;101580.00;;;;4950036;28;88704;-61
2022/10/12 01:43:03;;;;;;;2.93;1.53;;;2.70;99.90;2.40;101587.00;;;;4952809;28;93516;-61
2022/10/12 01:45:29;;;;;;;1.57;1.43;;;2.70;99.90;2.40;101574.00;;;;4950550;28;118177;-61
2022/10/12 01:47:55;;;;;;;2.70;1.87;;;2.70;99.90;2.40;101575.00;;;;4947306;28;109692;-60
2022/10/12 01:50:27;;;;;;;2.63;2.07;;;2.70;99.90;2.40;101581.00;;;;4945699;28;87772;-62
2022/10/12 01:53:07;;;;;;;3.10;2.00;;;2.60;99.90;2.30;101571.00;;;;4980540;28;109868;-61
2022/10/12 01:56:22;;;;;;;5.07;1.50;;;2.70;99.90;2.30;101575.00;;;;4952430;28;98985;-61
2022/10/12 01:59:19;;;;;;;3.60;1.73;;;2.60;99.90;2.30;101576.00;;;;4950053;28;105092;-61
2022/10/12 02:02:16;;;;;;;2.87;1.70;;;2.60;99.90;2.30;101574.00;;;;4968783;28;87815;-61
2022/10/12 02:04:59;;;;;;;2.17;1.57;;;2.50;99.90;2.20;101581.00;;;;4946584;28;101151;-61
2022/10/12 02:07:42;;;;;;;2.43;1.97;;;2.50;99.90;2.20;101561.00;;;;4948797;28;104778;-61
2022/10/12 02:10:17;;;;;;;3.80;2.00;;;2.50;99.90;2.20;101569.00;;;;4949827;28;87933;-61
2022/10/12 02:12:45;;;;;;;2.30;2.10;;;2.50;99.90;2.20;101569.00;;;;4957266;28;87830;-62
2022/10/12 02:15:13;;;;;;;2.37;1.73;;;2.50;99.90;2.20;101564.00;;;;4965533;28;118153;-62
2022/10/12 02:17:42;;;;;;;2.27;1.60;;;2.50;99.90;2.10;101571.00;;;;4948419;28;88912;-61
2022/10/12 02:20:13;;;;;;;2.80;2.23;;;2.40;99.90;2.10;101571.00;;;;4952543;28;92010;-62
2022/10/12 02:22:40;;;;;;;1.43;1.33;;;2.40;99.90;2.10;101580.00;;;;4954067;28;87879;-61
2022/10/12 02:25:10;;;;;;;1.33;1.20;;;2.40;99.90;2.10;101575.00;;;;4947369;28;108747;-61
2022/10/12 02:27:40;;;;;;;1.73;1.63;;;2.40;99.90;2.00;101570.00;;;;4962796;28;87800;-62
2022/10/12 02:30:07;;;;;;;1.90;1.47;;;2.30;99.90;2.00;101568.00;;;;4950116;28;87875;-62
2022/10/12 02:32:58;;;;;;;1.20;1.10;;;2.30;99.90;2.00;101568.00;;;;4944014;28;100332;-62
2022/10/12 02:35:55;;;;;;;1.73;1.50;;;2.30;99.90;1.90;101575.00;;;;4952224;28;87843;-62
2022/10/12 02:38:30;;;;;;;3.00;2.13;;;2.20;99.90;1.90;101572.00;;;;4947769;28;107779;-62
2022/10/12 02:41:01;;;;;;;3.47;1.93;;;2.20;99.90;1.90;101563.00;;;;4946114;28;87593;-62
2022/10/12 02:43:59;;;;;;;1.40;1.30;;;2.20;99.90;1.80;101558.00;;;;4950464;28;100417;-61
2022/10/12 02:46:26;;;;;;;1.43;1.33;;;2.20;99.90;1.80;101566.00;;;;4945122;28;88343;-62
2022/10/12 02:48:53;;;;;;;2.93;1.43;;;2.10;99.90;1.80;101568.00;;;;4951196;28;117437;-62
2022/10/12 02:51:20;;;;;;;1.23;1.07;;;2.10;99.90;1.80;101558.00;;;;4945711;28;87073;-62
2022/10/12 02:53:46;;;;;;;5.97;1.40;;;2.00;99.90;1.80;101562.00;;;;4945465;28;87448;-62
2022/10/12 02:56:14;;;;;;;1.40;1.30;;;2.00;99.90;1.70;101557.00;;;;4947768;28;88976;-61
2022/10/12 02:58:45;;;;;;;2.90;1.30;;;2.40;99.90;1.70;101555.00;;;;4952071;28;88816;-61
2022/10/12 03:01:12;;;;;;;2.43;1.10;;;2.00;99.90;1.60;101553.00;;;;4948765;28;96790;-62
2022/10/12 03:03:37;;;;;;;2.33;1.40;;;1.90;99.90;1.60;101556.00;;;;4952463;28;87743;-61
2022/10/12 03:06:03;;;;;;;2.33;2.13;;;2.00;99.90;1.50;101556.00;;;;4948724;28;88760;-61
2022/10/12 03:08:29;;;;;;;3.17;1.70;;;2.30;99.90;1.50;101550.00;;;;4951435;28;88618;-62
2022/10/12 03:11:11;;;;;;;4.97;1.50;;;1.80;99.90;1.40;101553.00;;;;4942799;28;110400;-62
2022/10/12 03:13:37;;;;;;;3.80;2.63;;;1.80;99.90;1.40;101551.00;;;;4943630;28;90655;-62
2022/10/12 03:16:09;;;;;;;1.93;1.63;;;1.80;99.90;1.40;101553.00;;;;4948438;28;118364;-61
2022/10/12 03:18:36;;;;;;;6.83;3.63;;;1.80;99.90;1.40;101551.00;;;;4955730;28;95092;-62
2022/10/12 03:21:02;;;;;;;2.37;2.00;;;1.70;99.90;1.40;101559.00;;;;4953201;28;88194;-62
2022/10/12 03:23:28;;;;;;;2.13;1.93;;;1.70;99.90;1.40;101558.00;;;;4947772;28;98584;-62
2022/10/12 03:25:54;;;;;;;2.17;1.47;;;1.70;99.90;1.40;101548.00;;;;4953719;28;118770;-61
2022/10/12 03:28:19;;;;;;;1.47;1.37;;;1.70;99.90;1.40;101546.00;;;;4951990;28;117824;-61
2022/10/12 03:30:45;;;;;;;2.00;1.70;;;1.70;99.90;1.40;101537.00;;;;4945377;28;108152;-61
2022/10/12 03:33:11;;;;;;;2.63;1.70;;;1.70;99.90;1.40;101534.00;;;;4952999;28;110052;-61
2022/10/12 03:35:37;;;;;;;5.43;2.17;;;1.70;99.90;1.40;101541.00;;;;4948864;28;117487;-62
2022/10/12 03:38:03;;;;;;;1.87;1.73;;;1.70;99.90;1.40;101540.00;;;;4949805;28;115373;-61
2022/10/12 03:40:28;;;;;;;3.43;2.27;;;1.70;99.90;1.40;101533.00;;;;4954096;28;86933;-62
2022/10/12 03:42:54;;;;;;;2.53;1.67;;;1.60;99.90;1.30;101541.00;;;;4952147;28;109138;-61
2022/10/12 03:45:20;;;;;;;3.97;2.00;;;1.60;99.90;1.30;101550.00;;;;4947050;28;102832;-61
2022/10/12 03:47:46;;;;;;;1.80;1.53;;;1.10;99.90;1.30;101543.00;;;;4951174;28;117686;-61
2022/10/12 03:50:12;;;;;;;1.60;1.50;;;1.60;99.90;1.30;101547.00;;;;4950231;28;87869;-62
2022/10/12 03:52:38;;;;;;;2.10;1.60;;;1.60;99.90;1.30;101534.00;;;;4951751;28;99158;-61
2022/10/12 03:55:04;;;;;;;1.63;1.47;;;1.60;99.90;1.20;101537.00;;;;4954229;28;117693;-62
2022/10/12 03:57:30;;;;;;;1.93;1.83;;;1.60;99.90;1.20;101533.00;;;;4946517;28;104477;-61
2022/10/12 03:59:55;;;;;;;5.17;2.70;;;1.50;99.90;1.10;101529.00;;;;4950286;28;108471;-60
2022/10/12 04:02:21;;;;;;;3.13;1.73;;;1.60;99.90;1.20;101533.00;;;;4955080;28;87798;-62
2022/10/12 04:04:47;;;;;;;2.50;1.60;;;1.50;99.90;1.10;101535.00;;;;4949738;28;117040;-61
2022/10/12 04:07:12;;;;;;;8.23;1.40;;;1.40;99.90;1.20;101538.00;;;;4943868;28;114818;-61
2022/10/12 04:09:38;;;;;;;1.90;1.43;;;1.50;99.90;1.10;101538.00;;;;4947704;28;87826;-61
2022/10/12 04:12:04;;;;;;;2.87;1.47;;;1.40;99.90;1.10;101539.00;;;;4947830;28;88775;-61
2022/10/12 04:14:30;;;;;;;2.63;1.97;;;1.40;99.90;1.10;101546.00;;;;4951551;28;117056;-61
2022/10/12 04:16:55;;;;;;;3.37;2.23;;;1.50;99.90;1.00;101543.00;;;;4953548;28;115630;-61
2022/10/12 04:19:21;;;;;;;2.67;1.97;;;1.30;99.90;1.00;101531.00;;;;4949893;28;103359;-61
2022/10/12 04:21:47;;;;;;;1.33;1.13;;;1.30;99.90;1.00;101536.00;;;;4952186;28;107947;-61
2022/10/12 04:24:13;;;;;;;2.30;2.03;;;1.30;99.90;0.90;101543.00;;;;4952540;28;116715;-61
2022/10/12 04:26:38;;;;;;;3.23;2.27;;;1.20;99.90;0.90;101542.00;;;;4949881;28;118098;-61
2022/10/12 04:29:04;;;;;;;2.03;1.83;;;1.30;99.90;0.90;101538.00;;;;4953499;28;110084;-62
2022/10/12 04:31:30;;;;;;;5.63;2.10;;;1.20;99.90;0.80;101539.00;;;;4947885;28;108827;-61
2022/10/12 04:33:56;;;;;;;2.97;1.43;;;1.10;99.90;0.80;101545.00;;;;4946133;28;117113;-61
2022/10/12 04:36:23;;;;;;;3.73;2.20;;;1.10;99.90;0.80;101543.00;;;;4949718;28;105218;-62
2022/10/12 04:38:49;;;;;;;2.70;1.60;;;1.10;99.90;0.80;101536.00;;;;4954616;28;88190;-62
2022/10/12 04:41:15;;;;;;;4.20;1.90;;;1.10;99.90;0.70;101541.00;;;;4950420;28;87665;-62
2022/10/12 04:43:41;;;;;;;2.77;1.77;;;1.00;99.90;0.70;101544.00;;;;4953455;28;88888;-61
2022/10/12 04:46:06;;;;;;;2.60;2.07;;;1.10;99.90;0.70;101539.00;;;;4951562;28;116103;-62
2022/10/12 04:48:32;;;;;;;3.20;2.07;;;1.00;99.90;0.70;101542.00;;;;4946251;28;98055;-61
2022/10/12 04:50:58;;;;;;;4.43;2.53;;;1.00;99.90;0.60;101529.00;;;;4937667;28;87853;-61
2022/10/12 04:53:23;;;;;;;3.20;1.77;;;1.00;99.90;0.60;101530.00;;;;4941873;28;117393;-61
2022/10/12 04:55:49;;;;;;;3.20;1.90;;;0.90;99.90;0.60;101538.00;;;;4949158;28;114642;-61
2022/10/12 04:58:15;;;;;;;4.20;2.23;;;0.90;99.90;0.60;101550.00;;;;4953439;28;110624;-62
2022/10/12 05:00:40;;;;;;;3.97;2.00;;;0.90;99.90;0.60;101535.00;;;;4952305;28;88756;-60
2022/10/12 05:03:06;;;;;;;2.70;1.77;;;1.00;99.90;0.60;101536.00;;;;4945659;28;118247;-61
2022/10/12 05:05:33;;;;;;;2.87;2.23;;;1.00;99.90;0.60;101537.00;;;;4951786;28;116987;-62
2022/10/12 05:07:59;;;;;;;3.77;2.53;;;0.90;99.90;0.60;101537.00;;;;4951122;28;87925;-61
2022/10/12 05:10:25;;;;;;;2.33;1.93;;;0.90;99.90;0.60;101537.00;;;;4949837;28;108946;-62
2022/10/12 05:12:51;;;;;;;2.60;1.73;;;1.00;99.90;0.60;101546.00;;;;4952879;28;117404;-62
2022/10/12 05:15:17;;;;;;;1.40;1.13;;;0.90;99.90;0.60;101536.00;;;;4944571;28;88785;-62
2022/10/12 05:17:42;;;;;;;1.40;1.30;;;0.90;99.90;0.60;101546.00;;;;4949272;28;87012;-61
2022/10/12 05:20:09;;;;;;;3.63;2.37;;;0.90;99.90;0.50;101543.00;;;;4951719;28;107379;-62
2022/10/12 05:22:35;;;;;;;4.20;1.90;;;0.90;99.90;0.60;101544.00;;;;4951470;28;88991;-62
2022/10/12 05:25:01;;;;;;;2.83;1.97;;;0.90;99.90;0.60;101550.00;;;;4943863;28;117285;-61
2022/10/12 05:27:26;;;;;;;2.43;2.13;;;0.80;99.90;0.60;101554.00;;;;4953963;28;87671;-62
2022/10/12 05:29:52;;;;;;;6.23;2.03;;;0.80;99.90;0.60;101543.00;;;;4950043;28;100018;-61
2022/10/12 05:32:18;;;;;;;2.83;2.57;;;0.90;99.90;0.60;101551.00;;;;4946190;28;117880;-62
2022/10/12 05:34:43;;;;;;;7.50;2.67;;;0.90;99.90;0.60;101543.00;;;;4954409;28;88398;-61
2022/10/12 05:37:09;;;;;;;7.73;2.07;;;0.90;99.90;0.70;101543.00;;;;4945086;28;109054;-62
2022/10/12 05:39:38;;;;;;;3.43;1.50;;;0.90;99.90;0.70;101546.00;;;;4949935;28;109622;-62
2022/10/12 05:42:04;;;;;;;2.47;2.17;;;1.00;99.90;0.70;101544.00;;;;4953954;28;87550;-61
2022/10/12 05:44:29;;;;;;;1.43;1.33;;;1.00;99.90;0.70;101542.00;;;;4950224;28;87910;-61
2022/10/12 05:46:55;;;;;;;4.43;1.90;;;1.00;99.90;0.80;101539.00;;;;4951199;28;103279;-61
2022/10/12 05:49:21;;;;;;;1.90;1.70;;;1.10;99.90;0.80;101549.00;;;;4952413;28;108460;-61
2022/10/12 05:51:47;;;;;;;3.33;1.93;;;1.10;99.90;0.90;101546.00;;;;4946443;28;118405;-61
2022/10/12 05:54:12;;;;;;;5.60;2.30;;;1.20;99.90;1.00;101554.00;;;;4950730;28;87628;-62
2022/10/12 05:56:38;;;;;;;1.93;1.60;;;1.20;99.90;1.10;101548.00;;;;4952574;28;110340;-61
2022/10/12 05:59:04;;;;;;;1.97;1.43;;;1.40;99.90;1.20;101552.00;;;;4949921;28;87879;-62
2022/10/12 06:01:30;;;;;;;1.77;1.60;;;1.50;99.90;1.40;101567.00;;;;4950964;28;118513;-61
2022/10/12 06:03:55;;;;;;;2.50;2.10;;;1.70;99.90;1.60;101562.00;;;;4953710;28;88077;-61
2022/10/12 06:06:21;;;;;;;3.47;2.10;;;1.80;99.90;1.80;101565.00;;;;4946660;28;97227;-61
2022/10/12 06:08:47;;;;;;;2.60;1.80;;;2.00;99.90;2.00;101568.00;;;;4942931;28;89748;-61
2022/10/12 06:11:13;;;;;;;3.90;1.87;;;2.10;99.90;2.10;101577.00;;;;4946357;28;117058;-61
2022/10/12 06:13:38;;;;;;;1.70;1.47;;;2.30;99.90;2.30;101567.00;;;;4945185;28;118252;-61
2022/10/12 06:16:05;;;;;;;2.40;1.83;;;2.40;99.90;2.50;101568.00;;;;4952060;28;103617;-61
2022/10/12 06:18:31;;;;;;;5.43;2.47;;;2.70;99.90;2.70;101575.00;;;;4951683;28;88264;-61
2022/10/12 06:20:56;;;;;;;2.93;2.47;;;2.80;99.90;2.80;101583.00;;;;4950103;28;100513;-61
2022/10/12 06:23:23;;;;;;;3.27;2.40;;;3.00;99.90;3.00;101574.00;;;;4951373;28;116671;-61
2022/10/12 06:25:50;;;;;;;3.67;2.03;;;3.40;99.90;3.30;101589.00;;;;4948530;28;110125;-61
2022/10/12 06:28:21;;;;;;;4.87;1.93;;;3.40;99.90;3.50;101594.00;;;;4945967;28;87852;-61
2022/10/12 06:30:58;;;;;;;3.47;2.40;;;3.60;99.90;3.80;101582.00;;;;4938394;28;88332;-61
2022/10/12 06:33:26;;;;;;;2.17;1.97;;;4.30;99.90;4.00;101582.00;;;;4942772;28;87631;-61
2022/10/12 06:35:52;;;;;;;3.40;2.40;;;4.20;99.90;4.20;101598.00;;;;4947858;28;87940;-61
2022/10/12 06:38:18;;;;;;;4.63;2.30;;;4.40;99.90;4.50;101595.00;;;;4955350;28;88884;-62
2022/10/12 06:40:44;;;;;;;2.00;1.80;;;4.60;99.90;4.70;101595.00;;;;4954939;28;117533;-61
2022/10/12 06:43:09;;;;;;;1.67;1.57;;;4.90;99.90;5.00;101592.00;;;;4950762;28;106097;-61
2022/10/12 06:45:36;;;;;;;4.23;2.10;;;5.10;99.90;5.30;101598.00;;;;4954657;28;88193;-61
2022/10/12 06:48:03;;;;;;;1.97;1.57;;;5.30;99.90;5.60;101595.00;;;;4951294;28;87819;-62
2022/10/12 06:50:29;;;;;;;1.97;1.60;;;5.60;99.90;5.90;101612.00;;;;4952541;28;88688;-61
2022/10/12 06:52:55;;;;;;;1.00;0.93;;;6.40;99.90;6.20;101594.00;;;;4959001;28;88249;-61
2022/10/12 06:55:20;;;;;;;2.67;2.20;;;6.20;99.90;6.50;101603.00;;;;4947532;28;87349;-61
2022/10/12 06:57:46;;;;;;;3.83;1.53;;;6.40;99.90;6.80;101605.00;;;;4951562;28;109440;-61
2022/10/12 07:00:13;;;;;;;13.40;2.37;;;6.70;99.90;7.10;101615.00;;;;4953677;28;115815;-61
2022/10/12 07:02:39;;;;;;;2.50;1.63;;;7.00;99.90;7.30;101603.00;;;;4951136;28;88751;-59
2022/10/12 07:05:06;;;;;;;2.00;1.37;;;7.30;99.90;7.60;101606.00;;;;4948887;28;109832;-61
2022/10/12 07:07:34;;;;;;;2.13;1.57;;;7.60;99.90;7.90;101614.00;;;;4956113;28;101391;-61
2022/10/12 07:10:00;;;;;;;3.30;1.40;;;8.00;99.90;8.20;101612.00;;;;4949929;28;88151;-61
2022/10/12 07:12:26;;;;;;;1.90;1.27;;;8.20;99.90;8.50;101606.00;;;;4952492;28;87959;-61
2022/10/12 07:14:53;;;;;;;3.57;1.70;;;8.40;99.90;8.80;101613.00;;;;4954921;28;110483;-61
2022/10/12 07:17:20;;;;;;;4.07;2.10;;;8.80;99.90;9.20;101602.00;;;;4949285;28;87951;-61
2022/10/12 07:19:46;;;;;;;3.80;1.80;;;9.10;99.90;9.60;101609.00;;;;4953438;28;88144;-62
2022/10/12 07:22:11;;;;;;;3.13;1.70;;;9.50;99.90;10.00;101614.00;;;;4954413;28;115429;-61
2022/10/12 07:24:37;;;;;;;4.30;1.13;;;9.90;99.90;10.30;101615.00;;;;4950897;28;110566;-61
2022/10/12 07:27:06;;;;;;;1.20;1.10;;;10.20;99.90;10.60;101617.00;;;;4945492;28;108792;-61
2022/10/12 07:29:33;;;;;;;1.63;1.50;;;10.50;99.90;10.90;101616.00;;;;4954116;28;89215;-61
2022/10/12 07:31:59;;;;;;;2.80;1.50;;;10.80;99.90;11.20;101623.00;;;;4948555;28;102341;-61
2022/10/12 07:34:26;;;;;;;6.43;2.03;;;11.10;99.90;11.40;101616.00;;;;4953103;28;110304;-61
2022/10/12 07:36:52;;;;;;;2.40;1.20;;;11.30;99.90;11.50;101613.00;;;;4955698;28;89645;-61
2022/10/12 07:39:18;;;;;;;6.23;1.77;;;11.40;99.90;11.80;101609.00;;;;4947844;28;94953;-61
2022/10/12 07:41:44;;;;;;;4.90;1.67;;;11.60;99.90;12.00;101614.00;;;;4953280;28;90235;-61
2022/10/12 07:44:10;;;;;;;1.27;1.00;;;11.90;99.90;12.20;101618.00;;;;4953508;28;110213;-62
2022/10/12 07:46:36;;;;;;;2.20;1.20;;;12.10;99.90;12.40;101615.00;;;;4953770;28;87858;-61
2022/10/12 07:49:02;;;;;;;2.60;1.60;;;12.30;99.90;12.70;101622.00;;;;4943463;28;98748;-61
2022/10/12 07:51:29;;;;;;;3.40;1.57;;;12.60;99.90;13.00;101622.00;;;;4943990;28;89081;-61
2022/10/12 07:53:54;;;;;;;2.37;1.43;;;12.90;99.90;13.20;101618.00;;;;4953853;28;87685;-61
2022/10/12 07:56:20;;;;;;;1.80;1.23;;;13.10;99.90;13.40;101626.00;;;;4953121;28;108706;-61
2022/10/12 07:58:52;;;;;;;1.53;1.30;;;13.30;99.90;13.60;101620.00;;;;4953400;28;87879;-61
2022/10/12 08:01:20;;;;;;;2.60;1.47;;;13.50;99.90;13.90;101627.00;;;;4950362;28;87805;-61
2022/10/12 08:03:46;;;;;;;1.63;1.53;;;13.80;99.90;14.30;101628.00;;;;4957388;28;102862;-61
2022/10/12 08:06:20;;;;;;;4.20;1.57;;;14.10;99.90;14.70;101631.00;;;;4956449;28;87984;-61
2022/10/12 08:08:47;;;;;;;6.67;4.80;;;14.50;99.60;15.10;101624.00;;;;4948388;28;86878;-61
2022/10/12 08:11:14;;;;;;;2.50;2.30;;;14.90;99.00;15.40;101622.00;;;;4935689;28;88661;-61
2022/10/12 08:13:40;;;;;;;2.87;1.93;;;15.20;98.40;15.80;101624.00;;;;4948175;28;87713;-61
2022/10/12 08:16:11;;;;;;;2.57;2.37;;;15.50;97.60;16.00;101618.00;;;;4953453;28;88700;-61
2022/10/12 08:18:37;;;;;;;4.17;2.07;;;15.80;96.30;16.30;101619.00;;;;4955370;28;89032;-62
2022/10/12 08:21:05;;;;;;;2.10;1.90;;;16.10;95.70;16.60;101620.00;;;;4955253;28;108224;-61
2022/10/12 08:23:30;;;;;;;4.47;1.58;;;16.40;95.10;16.90;101621.00;;;;4950203;28;103264;-61
2022/10/12 08:25:57;;;;;;;5.05;1.80;;;16.70;93.90;17.10;101620.00;;;;4951718;28;108524;-61
2022/10/12 08:28:23;;;;;;;2.58;2.05;;;16.90;93.40;17.30;101609.00;;;;4948333;28;90364;-61
2022/10/12 08:30:50;;;;;;;6.38;1.98;;;17.10;92.40;17.50;101615.00;;;;4953060;28;109367;-61
2022/10/12 08:33:16;;;;;;;1.52;1.42;;;17.30;91.00;17.60;101620.00;;;;4956292;28;87015;-61
2022/10/12 08:35:44;;;;;;;2.30;2.00;;;17.40;90.70;17.70;101620.00;;;;4947533;28;87794;-62
2022/10/12 08:38:11;;;;;;;5.57;1.77;;;17.50;90.40;17.90;101617.00;;;;4951984;28;88887;-61
2022/10/12 08:41:15;;;;;;;2.13;1.92;;;17.70;89.90;18.10;101623.00;;;;4950351;28;102170;-61
2022/10/12 08:44:02;;;;;;;4.45;2.05;;;17.90;88.70;18.40;101609.00;;;;4939603;28;87903;-62
2022/10/12 08:46:29;;;;;;;7.88;1.95;;;18.10;86.10;18.50;101620.00;;;;4954357;28;87968;-62
2022/10/12 08:49:16;;;;;;;3.83;1.60;;;18.20;83.10;18.50;101616.00;;;;4952495;28;89266;-61
2022/10/12 08:51:50;;;;;;;3.63;1.63;;;18.30;81.30;18.50;101620.00;;;;4968774;28;88197;-63
2022/10/12 08:54:21;;;;;;;4.32;3.08;;;18.30;79.50;18.60;101614.00;;;;4954525;28;97492;-61
2022/10/12 08:56:47;;;;;;;1.83;1.73;;;18.30;78.80;18.60;101609.00;;;;4961369;28;100085;-61
2022/10/12 08:59:16;;;;;;;3.85;1.92;;;18.40;77.90;18.80;101617.00;;;;4949641;28;88130;-61
2022/10/12 09:02:00;;;;;;;4.05;1.88;;;18.40;77.10;18.90;101620.00;;;;4954189;28;108450;-61
2022/10/12 09:04:53;;;;;;;2.38;1.70;;;18.50;76.30;19.00;101615.00;;;;4950371;28;87872;-61
2022/10/12 09:07:34;;;;;;;2.42;1.38;;;18.70;74.60;19.20;101617.00;;;;4948190;28;89136;-61
2022/10/12 09:10:21;;;;;;;1.25;1.15;;;18.80;74.00;19.30;101607.00;;;;4949027;28;109354;-61
2022/10/12 09:13:13;;;;;;;3.28;2.40;;;18.90;72.00;19.30;101622.00;;;;4950505;28;87681;-60
2022/10/12 09:15:56;;;;;;;2.58;1.40;;;18.90;72.20;19.40;101605.00;;;;4953144;28;91655;-61
2022/10/12 09:18:41;;;;;;;2.10;1.65;;;19.10;72.30;19.50;101603.00;;;;4950401;28;92233;-61
2022/10/12 09:21:16;;;;;;;0.88;0.88;;;19.30;70.70;19.70;101606.00;;;;4964865;28;96103;-60
2022/10/12 09:23:43;;;;;;;3.75;1.75;;;19.40;69.50;19.90;101617.00;;;;4952896;28;88622;-60
2022/10/12 09:26:19;;;;;;;1.33;1.23;;;19.50;67.80;20.00;101613.00;;;;4950855;28;86909;-61
2022/10/12 09:28:53;;;;;;;1.77;1.52;;;19.70;67.70;20.30;101618.00;;;;4949065;28;87959;-61
2022/10/12 09:32:00;;;;;;;1.85;1.10;;;19.90;68.20;20.70;101612.00;;;;4946876;28;87850;-61
2022/10/12 09:34:26;;;;;;;1.88;1.70;;;20.20;67.80;21.00;101600.00;;;;4965637;28;107712;-61
2022/10/12 09:36:54;;;;;;;2.25;1.42;;;20.60;66.40;21.30;101595.00;;;;4952848;28;111202;-60
2022/10/12 09:39:28;;;;;;;3.72;1.13;;;20.80;65.20;21.60;101601.00;;;;4951822;28;87632;-61
2022/10/12 09:41:54;;;;;;;1.25;0.73;;;21.10;64.70;21.90;101600.00;;;;4952676;28;88016;-60
2022/10/12 09:44:56;;;;;;;1.00;0.85;;;21.40;61.60;22.10;101594.00;;;;4954161;28;88185;-60
2022/10/12 09:47:27;;;;;;;1.10;0.98;;;21.60;60.70;22.10;101589.00;;;;4947646;28;101187;-61
2022/10/12 09:50:04;;;;;;;1.10;0.70;;;21.70;57.70;22.20;101586.00;;;;4949774;28;87729;-61
2022/10/12 09:52:42;;;;;;;1.42;0.90;;;21.70;58.70;22.10;101587.00;;;;4947874;28;88025;-60
2022/10/12 09:55:13;;;;;;;1.67;0.98;;;21.70;56.50;22.00;101592.00;;;;4952891;28;87910;-60
2022/10/12 09:57:42;;;;;;;2.17;1.20;;;21.60;56.70;22.00;101588.00;;;;4953130;28;96059;-60
2022/10/12 10:00:30;;;;;;;2.00;0.93;;;21.50;58.30;22.20;101594.00;;;;4952737;28;100129;-59
2022/10/12 10:02:56;;;;;;;4.50;1.30;;;21.70;58.30;22.40;101591.00;;;;4950666;28;91114;-60
2022/10/12 10:05:37;;;;;;;0.73;0.73;;;21.90;58.60;22.60;101591.00;;;;4949941;28;118412;-60
2022/10/12 10:08:22;;;;;;;1.85;0.70;;;22.10;58.60;22.90;101590.00;;;;4946540;28;102721;-61
2022/10/12 10:10:56;;;;;;;2.83;0.73;;;22.40;54.70;22.90;101593.00;;;;4953039;28;88029;-61
2022/10/12 10:13:28;;;;;;;1.20;1.02;;;22.40;54.00;22.80;101587.00;;;;4944045;28;109443;-61
2022/10/12 10:16:09;;;;;;;0.50;0.50;;;22.40;54.10;22.90;101591.00;;;;4952783;28;88608;-61
2022/10/12 10:18:47;;;;;;;2.15;0.65;;;22.40;53.70;22.80;101584.00;;;;4952795;28;87105;-61
2022/10/12 10:21:23;;;;;;;0.80;0.65;;;22.40;53.30;22.80;101582.00;;;;4951186;28;87814;-60
2022/10/12 10:23:56;;;;;;;1.70;0.68;;;22.40;52.70;22.70;101576.00;;;;4946669;28;88806;-60
2022/10/12 10:26:24;;;;;;;2.35;0.57;;;22.30;51.90;22.60;101581.00;;;;4952316;28;88669;-61
2022/10/12 10:29:18;;;;;;;2.47;1.15;;;22.20;52.60;22.70;101579.00;;;;4945973;28;88195;-61
2022/10/12 10:31:46;;;;;;;3.03;0.85;;;22.20;52.50;22.70;101579.00;;;;4945883;28;88043;-61
2022/10/12 10:34:15;;;;;;;2.05;0.82;;;22.30;52.50;22.90;101576.00;;;;4950595;28;87968;-60
2022/10/12 10:36:59;;;;;;;0.68;0.55;;;22.40;52.20;23.20;101575.00;;;;4948897;28;95978;-60
2022/10/12 10:39:30;;;;;;;0.68;0.65;;;22.60;51.90;23.30;101568.00;;;;4950497;28;108684;-60
2022/10/12 10:42:19;;;;;;;3.97;0.50;;;22.80;51.80;23.70;101565.00;;;;4951291;28;101729;-61
2022/10/12 10:44:50;;;;;;;2.13;0.63;;;23.10;50.60;23.80;101560.00;;;;4947151;28;87515;-61
2022/10/12 10:47:17;;;;;;;2.42;1.35;;;23.20;49.40;23.90;101563.00;;;;4962127;28;95743;-60
2022/10/12 10:49:54;;;;;;;0.75;0.75;;;23.30;49.80;24.00;101566.00;;;;4950491;28;107797;-60
2022/10/12 10:52:30;;;;;;;1.23;0.85;;;23.40;48.90;23.90;101566.00;;;;4949547;28;88556;-61
2022/10/12 10:55:09;;;;;;;1.02;0.60;;;23.40;47.00;23.80;101559.00;;;;4952893;28;87797;-60
2022/10/12 10:57:39;;;;;;;0.52;0.52;;;23.40;47.80;23.90;101555.00;;;;4945648;28;103310;-59
2022/10/12 11:00:13;;;;;;;1.23;0.70;;;23.30;47.90;24.00;101567.00;;;;4949025;28;102600;-61
2022/10/12 11:02:53;;;;;;;0.70;0.65;;;23.40;48.00;24.10;101556.00;;;;4964359;28;87708;-61
2022/10/12 11:05:35;;;;;;;3.63;0.73;;;23.50;47.90;24.10;101550.00;;;;4967441;28;87868;-61
2022/10/12 11:08:11;;;;;;;2.28;0.68;;;23.60;47.80;24.20;101540.00;;;;4948159;28;109599;-60
2022/10/12 11:11:02;;;;;;;0.50;0.47;;;23.70;46.40;23.90;101548.00;;;;4956924;28;102205;-60